Time;durP1;ratioP1;P1;durP2;ratioP2;P2;SDS_P1;SDS_P2;PMS_P1;PMS_P2;Temp;Humidity;BMP_temperature;BMP_pressure;BME280_temperature;BME280_humidity;BME280_pressure;Samples;Min_cycle;Max_cycle;Signal;HPM_P1;HPM_P2
2022/09/08 00:00:51;;;;;;;6.28;1.40;;;;;;;;;;5009982;28;20057;-75
2022/09/08 00:03:19;;;;;;;4.43;1.33;;;;;;;;;;5009950;28;20083;-75
2022/09/08 00:05:50;;;;;;;4.82;1.23;;;;;;;;;;5010038;28;20026;-75
2022/09/08 00:08:20;;;;;;;6.25;1.55;;;;;;;;;;5009873;28;20033;-75
2022/09/08 00:10:47;;;;;;;4.80;1.20;;;;;;;;;;5010031;28;20044;-75
2022/09/08 00:13:13;;;;;;;4.63;1.40;;;;;;;;;;4992412;28;20065;-76
2022/09/08 00:15:38;;;;;;;5.28;1.20;;;;;;;;;;5010021;28;20509;-75
2022/09/08 00:18:06;;;;;;;5.18;1.15;;;;;;;;;;5009742;28;20029;-76
2022/09/08 00:20:31;;;;;;;4.85;1.40;;;;;;;;;;5009792;28;20057;-75
2022/09/08 00:22:57;;;;;;;5.25;1.20;;;;;;;;;;5009663;28;20057;-75
2022/09/08 00:25:23;;;;;;;5.57;1.48;;;;;;;;;;5009802;28;20037;-75
2022/09/08 00:27:48;;;;;;;6.68;1.40;;;;;;;;;;4991956;28;20094;-75
2022/09/08 00:30:14;;;;;;;6.43;1.27;;;;;;;;;;5009580;28;20584;-75
2022/09/08 00:32:39;;;;;;;5.85;1.55;;;;;;;;;;5009629;28;20503;-75
2022/09/08 00:35:07;;;;;;;6.43;1.17;;;;;;;;;;5009572;28;20095;-75
2022/09/08 00:37:33;;;;;;;5.90;1.50;;;;;;;;;;5009415;28;20022;-75
2022/09/08 00:39:58;;;;;;;5.75;1.25;;;;;;;;;;5009023;28;20026;-75
2022/09/08 00:42:24;;;;;;;6.15;1.20;;;;;;;;;;5009532;28;20030;-75
2022/09/08 00:44:49;;;;;;;7.28;1.33;;;;;;;;;;5009160;28;20046;-75
2022/09/08 00:47:17;;;;;;;7.45;1.50;;;;;;;;;;5009613;28;20047;-75
2022/09/08 00:49:48;;;;;;;4.82;1.40;;;;;;;;;;5009360;28;20102;-75
2022/09/08 00:52:13;;;;;;;7.65;1.20;;;;;;;;;;5009431;28;20083;-75
2022/09/08 00:54:39;;;;;;;8.15;2.20;;;;;;;;;;4991435;28;20022;-75
2022/09/08 00:57:05;;;;;;;4.28;1.40;;;;;;;;;;5009299;28;20038;-75
2022/09/08 00:59:32;;;;;;;6.35;1.40;;;;;;;;;;5009212;28;20420;-75
2022/09/08 01:01:58;;;;;;;4.72;1.15;;;;;;;;;;5008503;28;20055;-75
2022/09/08 01:04:23;;;;;;;7.00;1.58;;;;;;;;;;5009104;28;20034;-75
2022/09/08 01:13:12;;;;;;;5.70;1.52;;;;;;;;;;5008955;28;20123;-75
2022/09/08 01:15:39;;;;;;;5.43;1.42;;;;;;;;;;5009126;28;20537;-75
2022/09/08 01:18:04;;;;;;;5.20;1.33;;;;;;;;;;5009045;28;20038;-75
2022/09/08 01:20:41;;;;;;;5.55;1.30;;;;;;;;;;5008749;28;20101;-75
2022/09/08 01:23:12;;;;;;;5.43;1.60;;;;;;;;;;5009211;28;20037;-75
2022/09/08 01:25:53;;;;;;;4.30;1.30;;;;;;;;;;5008638;28;20053;-75
2022/09/08 01:28:29;;;;;;;5.15;1.35;;;;;;;;;;5008687;28;20032;-75
2022/09/08 01:30:54;;;;;;;4.25;1.27;;;;;;;;;;5008491;28;20029;-75
2022/09/08 01:33:20;;;;;;;5.68;1.25;;;;;;;;;;5008860;28;20026;-75
2022/09/08 01:35:46;;;;;;;6.68;1.30;;;;;;;;;;5008702;28;20026;-75
2022/09/08 01:38:11;;;;;;;3.72;1.30;;;;;;;;;;5008708;28;20037;-75
2022/09/08 01:40:38;;;;;;;5.50;1.40;;;;;;;;;;5008336;28;20030;-75
2022/09/08 01:43:07;;;;;;;6.53;1.67;;;;;;;;;;5008578;28;20459;-75
2022/09/08 01:45:32;;;;;;;6.22;1.30;;;;;;;;;;5008343;28;20498;-75
2022/09/08 01:47:57;;;;;;;4.93;1.50;;;;;;;;;;5008359;28;20069;-75
2022/09/08 01:50:24;;;;;;;7.80;1.40;;;;;;;;;;5008169;28;20525;-75
2022/09/08 01:52:50;;;;;;;6.07;1.75;;;;;;;;;;5008598;28;20030;-76
2022/09/08 01:55:16;;;;;;;4.95;1.20;;;;;;;;;;5008305;28;20065;-75
2022/09/08 01:57:41;;;;;;;5.07;1.35;;;;;;;;;;5008628;28;20485;-75
2022/09/08 02:00:07;;;;;;;4.30;1.17;;;;;;;;;;5008392;28;20575;-75
2022/09/08 02:02:33;;;;;;;5.55;1.30;;;;;;;;;;4990327;28;20033;-75
2022/09/08 02:04:59;;;;;;;4.40;1.35;;;;;;;;;;5007983;28;20112;-75
2022/09/08 02:07:25;;;;;;;4.88;1.40;;;;;;;;;;5008133;28;20121;-75
2022/09/08 02:09:51;;;;;;;4.85;1.77;;;;;;;;;;5008147;28;20652;-75
2022/09/08 02:12:16;;;;;;;4.10;1.40;;;;;;;;;;5006966;28;20108;-75
2022/09/08 02:14:42;;;;;;;5.63;1.50;;;;;;;;;;5008007;28;20100;-77
2022/09/08 02:17:07;;;;;;;5.95;1.30;;;;;;;;;;5008266;28;20029;-77
2022/09/08 02:19:32;;;;;;;4.47;1.48;;;;;;;;;;5007802;28;20053;-75
2022/09/08 02:21:58;;;;;;;6.60;1.50;;;;;;;;;;5007806;28;20041;-77
2022/09/08 02:24:23;;;;;;;5.38;1.38;;;;;;;;;;5007847;28;20022;-75
2022/09/08 02:26:49;;;;;;;5.68;1.45;;;;;;;;;;5008029;28;20306;-77
2022/09/08 02:29:15;;;;;;;5.97;1.55;;;;;;;;;;5007806;28;20029;-77
2022/09/08 02:31:41;;;;;;;5.20;1.52;;;;;;;;;;5007782;28;20519;-75
2022/09/08 02:34:07;;;;;;;5.57;1.40;;;;;;;;;;5007903;28;20591;-75
2022/09/08 02:36:33;;;;;;;5.65;1.40;;;;;;;;;;5007723;28;20040;-75
2022/09/08 02:38:58;;;;;;;4.03;1.30;;;;;;;;;;5007773;28;20037;-75
2022/09/08 02:41:26;;;;;;;5.93;1.65;;;;;;;;;;5007173;28;20448;-77
2022/09/08 02:43:52;;;;;;;6.78;1.30;;;;;;;;;;5007600;28;20030;-75
2022/09/08 02:46:18;;;;;;;6.03;1.55;;;;;;;;;;5007260;28;20417;-75
2022/09/08 02:48:43;;;;;;;6.82;1.42;;;;;;;;;;4990364;28;20045;-75
2022/09/08 02:51:12;;;;;;;7.35;1.60;;;;;;;;;;5007346;28;20030;-75
2022/09/08 02:53:39;;;;;;;4.97;1.50;;;;;;;;;;5007652;28;20033;-77
2022/09/08 02:56:05;;;;;;;4.57;1.10;;;;;;;;;;5007431;28;20037;-75
2022/09/08 02:58:31;;;;;;;6.30;1.42;;;;;;;;;;5007316;28;20026;-75
2022/09/08 03:00:58;;;;;;;6.82;1.50;;;;;;;;;;5007241;28;20034;-75
2022/09/08 03:03:24;;;;;;;4.70;1.30;;;;;;;;;;5007528;28;20025;-76
2022/09/08 03:05:49;;;;;;;4.35;1.50;;;;;;;;;;5007353;28;20026;-74
2022/09/08 03:08:15;;;;;;;4.72;1.40;;;;;;;;;;5007517;28;20025;-75
2022/09/08 03:10:41;;;;;;;5.65;1.60;;;;;;;;;;5007187;28;20030;-77
2022/09/08 03:13:06;;;;;;;5.38;1.40;;;;;;;;;;5007090;28;20044;-77
2022/09/08 03:15:32;;;;;;;4.13;1.25;;;;;;;;;;5006943;28;20030;-75
2022/09/08 03:17:59;;;;;;;7.18;1.58;;;;;;;;;;5007250;28;20087;-75
2022/09/08 03:20:25;;;;;;;6.32;1.55;;;;;;;;;;5007083;28;20041;-75
2022/09/08 03:22:51;;;;;;;7.35;1.52;;;;;;;;;;5007280;28;20034;-75
2022/09/08 03:25:17;;;;;;;4.78;1.30;;;;;;;;;;5010186;28;20037;-75
2022/09/08 03:27:43;;;;;;;7.00;1.33;;;;;;;;;;5010610;28;20038;-75
2022/09/08 03:30:11;;;;;;;5.18;1.38;;;;;;;;;;5010434;28;20083;-78
2022/09/08 03:32:38;;;;;;;4.25;1.25;;;;;;;;;;5010390;28;20029;-75
2022/09/08 03:35:07;;;;;;;5.90;1.50;;;;;;;;;;5010451;28;20033;-75
2022/09/08 03:37:33;;;;;;;7.68;1.40;;;;;;;;;;5010706;28;20029;-75
2022/09/08 03:39:58;;;;;;;5.40;1.60;;;;;;;;;;5010620;28;20116;-75
2022/09/08 03:42:24;;;;;;;5.85;1.60;;;;;;;;;;5009989;28;20155;-75
2022/09/08 03:44:52;;;;;;;4.40;1.35;;;;;;;;;;5010301;28;20404;-75
2022/09/08 03:47:17;;;;;;;6.15;1.55;;;;;;;;;;5010124;28;20458;-78
2022/09/08 03:49:43;;;;;;;5.38;1.50;;;;;;;;;;5010309;28;20022;-76
2022/09/08 03:52:08;;;;;;;10.45;1.95;;;;;;;;;;5009901;28;20033;-75
2022/09/08 03:54:50;;;;;;;5.20;1.38;;;;;;;;;;5010181;28;20409;-75
2022/09/08 03:57:19;;;;;;;4.93;1.60;;;;;;;;;;5010108;28;20046;-75
2022/09/08 03:59:44;;;;;;;4.85;1.60;;;;;;;;;;5010403;28;20496;-75
2022/09/08 04:02:10;;;;;;;5.70;1.63;;;;;;;;;;5009965;28;20457;-75
2022/09/08 04:04:36;;;;;;;6.82;1.75;;;;;;;;;;5010152;28;20030;-75
2022/09/08 04:07:03;;;;;;;7.20;1.83;;;;;;;;;;5009898;28;20044;-75
2022/09/08 04:09:28;;;;;;;5.68;1.50;;;;;;;;;;5010205;28;20026;-76
2022/09/08 04:11:54;;;;;;;6.30;1.45;;;;;;;;;;5009522;28;20029;-75
2022/09/08 04:14:19;;;;;;;7.80;1.50;;;;;;;;;;5010035;28;20036;-76
2022/09/08 04:16:44;;;;;;;8.32;1.65;;;;;;;;;;4992372;28;20041;-75
2022/09/08 04:19:13;;;;;;;8.07;1.30;;;;;;;;;;5010005;28;20449;-75
2022/09/08 04:21:39;;;;;;;5.28;1.60;;;;;;;;;;5009552;28;20058;-75
2022/09/08 04:24:05;;;;;;;5.22;1.50;;;;;;;;;;5009903;28;20072;-75
2022/09/08 04:26:31;;;;;;;4.13;1.50;;;;;;;;;;5009430;28;20038;-75
2022/09/08 04:28:57;;;;;;;8.10;1.65;;;;;;;;;;5009669;28;20030;-75
2022/09/08 04:31:23;;;;;;;5.50;1.58;;;;;;;;;;5009352;28;20029;-75
2022/09/08 04:33:48;;;;;;;5.20;1.60;;;;;;;;;;5009879;28;20036;-75
2022/09/08 04:36:17;;;;;;;6.22;1.48;;;;;;;;;;5008679;28;20041;-77
2022/09/08 04:38:43;;;;;;;6.75;1.60;;;;;;;;;;5009725;28;20032;-77
2022/09/08 04:41:11;;;;;;;5.75;1.48;;;;;;;;;;5009353;28;20026;-77
2022/09/08 04:43:37;;;;;;;5.93;1.40;;;;;;;;;;5009240;28;20030;-77
2022/09/08 04:46:07;;;;;;;6.55;1.63;;;;;;;;;;5009113;28;20042;-77
2022/09/08 04:48:34;;;;;;;5.68;1.40;;;;;;;;;;5009658;28;20504;-77
2022/09/08 04:51:01;;;;;;;9.52;1.70;;;;;;;;;;5009273;28;20034;-77
2022/09/08 04:53:29;;;;;;;4.60;1.50;;;;;;;;;;5009434;28;20061;-77
2022/09/08 04:55:54;;;;;;;6.68;1.75;;;;;;;;;;5009286;28;20030;-77
2022/09/08 04:58:21;;;;;;;4.80;1.38;;;;;;;;;;5009265;28;20026;-77
2022/09/08 05:00:46;;;;;;;6.35;1.65;;;;;;;;;;5009456;28;20034;-77
2022/09/08 05:03:12;;;;;;;5.70;1.50;;;;;;;;;;5008819;28;20613;-77
2022/09/08 05:05:38;;;;;;;6.82;1.50;;;;;;;;;;5009676;28;20040;-77
2022/09/08 05:08:04;;;;;;;6.50;1.70;;;;;;;;;;5009260;28;20095;-77
2022/09/08 05:10:33;;;;;;;6.28;1.70;;;;;;;;;;5009317;28;20481;-77
2022/09/08 05:12:59;;;;;;;5.35;1.50;;;;;;;;;;5008633;28;20105;-77
2022/09/08 05:15:25;;;;;;;4.15;1.40;;;;;;;;;;5008962;28;20554;-77
2022/09/08 05:17:51;;;;;;;8.40;2.00;;;;;;;;;;5008791;28;20034;-77
2022/09/08 05:20:17;;;;;;;6.68;1.70;;;;;;;;;;5009037;28;20098;-77
2022/09/08 05:22:42;;;;;;;5.38;1.42;;;;;;;;;;5008722;28;20113;-77
2022/09/08 05:25:08;;;;;;;5.75;1.83;;;;;;;;;;5009043;28;20498;-77
2022/09/08 05:27:34;;;;;;;4.32;1.40;;;;;;;;;;5008474;28;20030;-77
2022/09/08 05:29:59;;;;;;;6.70;1.50;;;;;;;;;;5008998;28;20514;-77
2022/09/08 05:32:25;;;;;;;16.80;2.20;;;;;;;;;;5008506;28;20022;-77
2022/09/08 05:34:50;;;;;;;8.50;1.70;;;;;;;;;;5008812;28;20374;-77
2022/09/08 05:37:16;;;;;;;5.00;1.70;;;;;;;;;;5008476;28;20018;-77
2022/09/08 05:39:42;;;;;;;11.13;2.03;;;;;;;;;;5008742;28;20053;-77
2022/09/08 05:42:07;;;;;;;11.00;1.70;;;;;;;;;;5008055;28;20030;-77
2022/09/08 05:44:33;;;;;;;8.75;1.88;;;;;;;;;;5008699;28;20508;-77
2022/09/08 05:46:58;;;;;;;11.85;2.10;;;;;;;;;;5008149;28;20037;-77
2022/09/08 05:49:24;;;;;;;6.40;1.85;;;;;;;;;;5008412;28;20038;-77
2022/09/08 05:51:52;;;;;;;5.30;1.65;;;;;;;;;;5008113;28;20028;-77
2022/09/08 05:54:19;;;;;;;8.20;1.55;;;;;;;;;;5008469;28;20064;-77
2022/09/08 05:56:45;;;;;;;6.72;1.60;;;;;;;;;;5008340;28;20043;-77
2022/09/08 05:59:11;;;;;;;8.60;1.77;;;;;;;;;;5008331;28;20025;-76
2022/09/08 06:01:36;;;;;;;7.10;1.60;;;;;;;;;;5008678;28;20052;-77
2022/09/08 06:04:02;;;;;;;9.25;1.70;;;;;;;;;;5008301;28;20398;-77
2022/09/08 06:06:29;;;;;;;8.27;1.50;;;;;;;;;;5008216;28;20049;-77
2022/09/08 06:08:55;;;;;;;6.22;1.70;;;;;;;;;;4990398;28;20556;-77
2022/09/08 06:11:21;;;;;;;9.98;1.70;;;;;;;;;;5008143;28;20026;-77
2022/09/08 06:13:47;;;;;;;4.45;1.50;;;;;;;;;;5007705;28;20025;-77
2022/09/08 06:16:14;;;;;;;7.25;1.63;;;;;;;;;;5008134;28;20107;-77
2022/09/08 06:18:42;;;;;;;6.88;1.58;;;;;;;;;;5008050;28;20041;-76
2022/09/08 06:21:16;;;;;;;5.40;1.60;;;;;;;;;;5008353;28;20138;-77
2022/09/08 06:23:42;;;;;;;6.28;1.80;;;;;;;;;;5007609;28;20022;-77
2022/09/08 06:26:45;;;;;;;9.98;1.45;;;;;;;;;;5007872;28;20034;-77
2022/09/08 06:29:29;;;;;;;6.10;1.52;;;;;;;;;;5007901;28;20069;-77
2022/09/08 06:32:07;;;;;;;9.57;1.75;;;;;;;;;;5007750;28;20033;-77
2022/09/08 06:34:43;;;;;;;8.70;1.80;;;;;;;;;;5007917;28;20033;-77
2022/09/08 06:37:27;;;;;;;7.00;1.77;;;;;;;;;;5007779;28;20030;-76
2022/09/08 06:40:01;;;;;;;6.00;1.60;;;;;;;;;;5007929;28;20034;-77
2022/09/08 06:42:47;;;;;;;8.23;1.63;;;;;;;;;;5007328;28;20026;-77
2022/09/08 06:45:23;;;;;;;10.50;1.80;;;;;;;;;;5006955;28;20050;-77
2022/09/08 06:48:10;;;;;;;9.30;1.58;;;;;;;;;;5007542;28;20073;-76
2022/09/08 06:50:41;;;;;;;8.48;1.65;;;;;;;;;;5007703;28;20641;-77
2022/09/08 06:53:10;;;;;;;;;;;;;;;;;;5007782;28;20034;-77
2022/09/08 06:55:43;;;;;;;9.52;1.63;;;;;;;;;;5007724;28;20011;-76
2022/09/08 06:58:31;;;;;;;6.85;1.40;;;;;;;;;;5006548;28;20038;-77
2022/09/08 07:01:24;;;;;;;6.05;1.70;;;;;;;;;;5007464;28;20021;-77
2022/09/08 07:04:08;;;;;;;10.27;1.67;;;;;;;;;;4989242;28;20086;-77
2022/09/08 07:06:47;;;;;;;9.65;1.63;;;;;;;;;;5007395;28;20064;-77
2022/09/08 07:09:20;;;;;;;7.40;1.80;;;;;;;;;;5007247;28;20101;-77
2022/09/08 07:11:58;;;;;;;6.50;1.40;;;;;;;;;;4990129;28;20489;-77
2022/09/08 07:14:42;;;;;;;6.03;1.60;;;;;;;;;;5007105;28;20405;-77
2022/09/08 07:17:23;;;;;;;5.55;1.55;;;;;;;;;;5007256;28;20053;-77
2022/09/08 07:19:54;;;;;;;6.63;1.40;;;;;;;;;;5007257;28;20026;-77
2022/09/08 07:22:31;;;;;;;8.35;1.48;;;;;;;;;;5007066;28;20033;-77
2022/09/08 07:25:15;;;;;;;8.63;1.58;;;;;;;;;;5007166;28;20045;-77
2022/09/08 07:27:42;;;;;;;9.38;1.50;;;;;;;;;;5006672;28;20048;-77
2022/09/08 07:30:16;;;;;;;7.07;1.60;;;;;;;;;;5007166;28;20029;-77
2022/09/08 07:32:44;;;;;;;6.82;1.48;;;;;;;;;;5006835;28;20018;-77
2022/09/08 07:35:40;;;;;;;8.88;1.40;;;;;;;;;;5007074;28;20559;-77
2022/09/08 07:38:12;;;;;;;5.03;1.30;;;;;;;;;;5006753;28;20033;-77
2022/09/08 07:40:43;;;;;;;6.10;1.30;;;;;;;;;;5006905;28;20022;-77
2022/09/08 07:43:10;;;;;;;;;;;;;;;;;;5006879;28;20022;-77
2022/09/08 07:45:48;;;;;;;7.47;1.40;;;;;;;;;;5006820;28;19997;-77
2022/09/08 07:48:32;;;;;;;8.57;1.30;;;;;;;;;;5006933;28;20037;-77
2022/09/08 07:51:10;;;;;;;5.18;1.10;;;;;;;;;;5007146;28;20431;-77
2022/09/08 07:54:02;;;;;;;6.35;1.40;;;;;;;;;;5006475;28;20499;-77
2022/09/08 07:56:53;;;;;;;6.35;1.42;;;;;;;;;;5006773;28;20546;-76
2022/09/08 07:59:27;;;;;;;5.63;1.25;;;;;;;;;;5006082;28;20041;-77
2022/09/08 08:01:56;;;;;;;6.88;1.33;;;;;;;;;;5006827;28;20154;-77
2022/09/08 08:04:32;;;;;;;7.53;1.42;;;;;;;;;;5006375;28;20512;-78
2022/09/08 08:07:04;;;;;;;6.70;1.40;;;;;;;;;;5006726;28;20461;-77
2022/09/08 08:09:29;;;;;;;5.95;1.30;;;;;;;;;;5007067;28;20026;-77
2022/09/08 08:12:22;;;;;;;8.65;1.20;;;;;;;;;;5009788;28;20032;-77
2022/09/08 08:15:18;;;;;;;5.13;1.50;;;;;;;;;;5009473;28;20026;-77
2022/09/08 08:18:16;;;;;;;6.10;1.50;;;;;;;;;;5009969;28;20026;-77
2022/09/08 08:20:53;;;;;;;4.60;1.20;;;;;;;;;;5009862;28;20126;-77
2022/09/08 08:24:07;;;;;;;6.45;1.38;;;;;;;;;;5009862;28;20026;-77
2022/09/08 08:26:54;;;;;;;5.90;1.10;;;;;;;;;;4965658;28;20049;-78
2022/09/08 08:29:32;;;;;;;4.72;1.30;;;;;;;;;;5009489;28;20029;-77
2022/09/08 08:32:11;;;;;;;4.07;1.00;;;;;;;;;;5009997;28;20500;-78
2022/09/08 08:34:45;;;;;;;6.20;1.20;;;;;;;;;;5009253;28;20473;-78
2022/09/08 08:37:17;;;;;;;4.70;1.20;;;;;;;;;;5009744;28;20070;-79
2022/09/08 08:39:45;;;;;;;4.50;1.20;;;;;;;;;;5009618;28;20033;-77
2022/09/08 08:42:14;;;;;;;6.05;1.10;;;;;;;;;;5009402;28;20030;-77
2022/09/08 08:44:39;;;;;;;4.70;1.10;;;;;;;;;;5009054;28;20042;-78
2022/09/08 08:47:35;;;;;;;5.28;1.05;;;;;;;;;;5009566;28;20029;-78
2022/09/08 08:50:41;;;;;;;5.13;1.10;;;;;;;;;;5009263;28;20044;-77
2022/09/08 08:53:18;;;;;;;4.95;1.08;;;;;;;;;;5009378;28;20030;-78
2022/09/08 08:56:23;;;;;;;5.85;1.17;;;;;;;;;;4991811;28;20639;-77
2022/09/08 08:59:04;;;;;;;5.47;1.10;;;;;;;;;;5009215;28;20396;-77
2022/09/08 09:01:33;;;;;;;6.10;1.30;;;;;;;;;;5009480;28;20048;-78
2022/09/08 09:04:29;;;;;;;5.78;1.25;;;;;;;;;;5008828;28;20022;-78
2022/09/08 09:07:27;;;;;;;3.92;1.05;;;;;;;;;;5009122;28;20669;-77
2022/09/08 09:10:07;;;;;;;4.88;1.20;;;;;;;;;;5008665;28;20045;-78
2022/09/08 09:12:57;;;;;;;6.53;1.10;;;;;;;;;;5009300;28;20026;-79
2022/09/08 09:15:47;;;;;;;5.85;0.95;;;;;;;;;;4991180;28;20025;-78
2022/09/08 09:18:37;;;;;;;3.17;0.82;;;;;;;;;;5009136;28;20429;-78
2022/09/08 09:21:10;;;;;;;4.93;1.20;;;;;;;;;;5008359;28;20041;-78
2022/09/08 09:23:51;;;;;;;4.90;1.02;;;;;;;;;;5008773;28;20038;-77
2022/09/08 09:26:25;;;;;;;;;;;;;;;;;;4991935;28;20022;-77
2022/09/08 09:29:12;;;;;;;3.13;0.80;;;;;;;;;;5008702;28;19913;-77
2022/09/08 09:32:08;;;;;;;7.40;1.00;;;;;;;;;;5009061;28;20026;-77
2022/09/08 09:35:07;;;;;;;3.45;0.70;;;;;;;;;;5008546;28;20026;-77
2022/09/08 09:38:10;;;;;;;5.00;1.00;;;;;;;;;;5008703;28;20095;-78
2022/09/08 09:40:38;;;;;;;3.75;0.88;;;;;;;;;;5008557;28;20037;-77
2022/09/08 09:43:21;;;;;;;5.45;0.80;;;;;;;;;;5008382;28;20029;-77
2022/09/08 09:46:20;;;;;;;3.30;0.90;;;;;;;;;;5007947;28;20042;-77
2022/09/08 09:49:14;;;;;;;8.15;1.13;;;;;;;;;;5008737;28;20045;-78
2022/09/08 09:51:56;;;;;;;4.95;0.90;;;;;;;;;;5008646;28;20033;-77
2022/09/08 09:54:24;;;;;;;4.90;0.98;;;;;;;;;;5008079;28;20483;-78
2022/09/08 09:57:05;;;;;;;4.25;1.08;;;;;;;;;;5008504;28;20245;-76
2022/09/08 09:59:40;;;;;;;3.28;0.90;;;;;;;;;;5008214;28;20049;-75
2022/09/08 10:02:41;;;;;;;4.05;0.95;;;;;;;;;;5008363;28;20022;-75
2022/09/08 10:05:25;;;;;;;5.07;0.90;;;;;;;;;;4990345;28;20374;-77
2022/09/08 10:08:08;;;;;;;7.75;1.20;;;;;;;;;;5008403;28;20048;-77
2022/09/08 10:10:40;;;;;;;4.68;0.90;;;;;;;;;;4990486;28;20685;-79
2022/09/08 10:13:32;;;;;;;3.47;0.80;;;;;;;;;;5008185;28;20054;-78
2022/09/08 10:16:26;;;;;;;4.40;1.13;;;;;;;;;;5007773;28;20034;-76
2022/09/08 10:18:57;;;;;;;4.82;1.15;;;;;;;;;;5008113;28;20022;-78
2022/09/08 10:21:48;;;;;;;5.50;1.10;;;;;;;;;;5007924;28;20026;-77
2022/09/08 10:24:52;;;;;;;4.38;0.95;;;;;;;;;;4990777;28;20041;-79
2022/09/08 10:27:33;;;;;;;7.10;1.27;;;;;;;;;;4990117;28;20593;-79
2022/09/08 10:30:23;;;;;;;3.65;1.00;;;;;;;;;;5007885;28;20061;-80
2022/09/08 10:33:11;;;;;;;3.83;1.00;;;;;;;;;;5007336;28;20124;-80
2022/09/08 10:36:09;;;;;;;3.33;0.93;;;;;;;;;;4989723;28;20662;-79
2022/09/08 10:38:52;;;;;;;5.03;1.00;;;;;;;;;;5007621;28;20045;-77
2022/09/08 10:42:00;;;;;;;3.05;0.80;;;;;;;;;;5007737;28;20033;-79
2022/09/08 10:45:00;;;;;;;6.20;1.00;;;;;;;;;;4989938;28;20034;-79
2022/09/08 10:47:53;;;;;;;4.53;1.02;;;;;;;;;;5008236;28;20076;-77
2022/09/08 10:50:24;;;;;;;5.95;0.90;;;;;;;;;;5007728;28;20033;-76
2022/09/08 10:53:08;;;;;;;2.83;0.90;;;;;;;;;;5007430;28;20022;-77
2022/09/08 10:55:51;;;;;;;3.00;0.90;;;;;;;;;;5007299;28;20056;-76
2022/09/08 10:58:44;;;;;;;5.13;1.17;;;;;;;;;;4989897;28;20026;-76
2022/09/08 11:01:41;;;;;;;3.53;0.90;;;;;;;;;;5007434;28;20022;-75
2022/09/08 11:04:28;;;;;;;3.35;0.90;;;;;;;;;;5007387;28;20029;-75
2022/09/08 11:07:15;;;;;;;3.15;0.75;;;;;;;;;;5007105;28;20038;-75
2022/09/08 11:09:55;;;;;;;6.95;1.40;;;;;;;;;;5007309;28;20488;-75
2022/09/08 11:12:57;;;;;;;4.13;0.80;;;;;;;;;;5007229;28;20037;-75
2022/09/08 11:15:41;;;;;;;3.35;1.10;;;;;;;;;;5007059;28;20541;-74
2022/09/08 11:18:36;;;;;;;3.85;0.90;;;;;;;;;;5007358;28;20055;-75
2022/09/08 11:21:26;;;;;;;3.58;1.02;;;;;;;;;;5007209;28;20033;-74
2022/09/08 11:24:00;;;;;;;4.57;0.90;;;;;;;;;;5007297;28;20062;-75
2022/09/08 11:26:47;;;;;;;3.45;0.77;;;;;;;;;;5006705;28;20041;-77
2022/09/08 11:29:17;;;;;;;4.45;1.30;;;;;;;;;;4989600;28;20125;-74
2022/09/08 11:32:14;;;;;;;3.08;0.90;;;;;;;;;;5007034;28;20071;-74
2022/09/08 11:35:07;;;;;;;5.38;1.30;;;;;;;;;;5007086;28;20920;-74
2022/09/08 11:37:47;;;;;;;4.95;0.73;;;;;;;;;;5007014;28;20026;-75
2022/09/08 11:40:40;;;;;;;4.43;1.10;;;;;;;;;;5007022;28;20080;-77
2022/09/08 11:43:29;;;;;;;3.85;0.90;;;;;;;;;;5006649;28;20172;-77
2022/09/08 11:46:00;;;;;;;5.13;1.08;;;;;;;;;;5008904;28;20554;-77
2022/09/08 11:48:54;;;;;;;2.60;0.80;;;;;;;;;;5010313;28;20033;-77
2022/09/08 11:51:59;;;;;;;2.30;0.85;;;;;;;;;;5010359;28;20034;-77
2022/09/08 11:54:24;;;;;;;3.42;1.00;;;;;;;;;;4992470;28;20492;-76
2022/09/08 11:57:17;;;;;;;4.18;1.00;;;;;;;;;;5010029;28;20030;-77
2022/09/08 12:00:04;;;;;;;4.18;1.00;;;;;;;;;;5010247;28;20040;-76
2022/09/08 12:03:01;;;;;;;5.28;1.02;;;;;;;;;;5010175;28;20026;-77
2022/09/08 12:05:50;;;;;;;4.43;1.00;;;;;;;;;;5010035;28;20033;-77
2022/09/08 12:08:25;;;;;;;4.32;0.88;;;;;;;;;;5010120;28;20116;-77
2022/09/08 12:11:10;;;;;;;4.72;0.95;;;;;;;;;;5010197;28;20052;-77
2022/09/08 12:13:44;;;;;;;4.00;1.10;;;;;;;;;;5010092;28;20199;-77
2022/09/08 12:16:45;;;;;;;3.78;0.90;;;;;;;;;;5009672;28;20026;-77
2022/09/08 12:19:29;;;;;;;;;;;;;;;;;;5009705;28;20045;-77
2022/09/08 12:22:13;;;;;;;5.45;1.00;;;;;;;;;;5009675;28;19923;-77
2022/09/08 12:25:21;;;;;;;3.13;1.08;;;;;;;;;;4992327;28;20026;-77
2022/09/08 12:28:04;;;;;;;5.03;1.02;;;;;;;;;;5009267;28;20128;-77
2022/09/08 12:30:48;;;;;;;4.35;1.00;;;;;;;;;;5009826;28;20573;-77
2022/09/08 12:34:05;;;;;;;4.47;0.82;;;;;;;;;;5009612;28;20052;-76
2022/09/08 12:36:41;;;;;;;3.47;1.00;;;;;;;;;;4961685;28;20042;-76
2022/09/08 12:39:26;;;;;;;4.65;1.02;;;;;;;;;;5009823;28;20045;-77
2022/09/08 12:42:24;;;;;;;6.30;1.27;;;;;;;;;;5009470;28;20094;-77
2022/09/08 12:45:11;;;;;;;7.70;1.20;;;;;;;;;;5009217;28;20049;-77
2022/09/08 12:48:09;;;;;;;6.50;0.95;;;;;;;;;;5009315;28;20022;-76
2022/09/08 12:50:54;;;;;;;5.68;1.10;;;;;;;;;;5009439;28;20105;-77
2022/09/08 12:53:33;;;;;;;4.35;1.10;;;;;;;;;;5008765;28;20045;-77
2022/09/08 12:56:10;;;;;;;8.05;1.05;;;;;;;;;;5008425;28;20438;-76
2022/09/08 12:58:50;;;;;;;3.67;0.80;;;;;;;;;;5009313;28;20480;-77
2022/09/08 13:01:30;;;;;;;4.18;0.90;;;;;;;;;;5009196;28;20029;-77
2022/09/08 13:04:07;;;;;;;3.53;0.90;;;;;;;;;;5009495;28;20486;-77
2022/09/08 13:06:58;;;;;;;6.65;1.30;;;;;;;;;;5008846;28;20508;-77
2022/09/08 13:09:25;;;;;;;4.18;0.90;;;;;;;;;;4991684;28;20037;-76
2022/09/08 13:12:16;;;;;;;6.38;1.00;;;;;;;;;;5008671;28;20125;-76
2022/09/08 13:15:04;;;;;;;4.35;0.93;;;;;;;;;;5009379;28;20056;-76
2022/09/08 13:17:42;;;;;;;4.43;0.82;;;;;;;;;;5008891;28;20046;-76
2022/09/08 13:20:19;;;;;;;5.47;0.85;;;;;;;;;;5009064;28;20026;-76
2022/09/08 13:22:48;;;;;;;8.48;1.05;;;;;;;;;;5008946;28;20116;-77
2022/09/08 13:25:29;;;;;;;3.72;0.80;;;;;;;;;;5008804;28;20501;-77
2022/09/08 13:28:14;;;;;;;3.30;1.00;;;;;;;;;;5008604;28;20038;-76
2022/09/08 13:30:55;;;;;;;8.50;1.13;;;;;;;;;;4991131;28;20041;-76
2022/09/08 13:33:38;;;;;;;5.95;1.00;;;;;;;;;;5008773;28;20048;-77
2022/09/08 13:36:17;;;;;;;5.15;1.25;;;;;;;;;;5008767;28;20034;-76
2022/09/08 13:39:16;;;;;;;5.30;1.17;;;;;;;;;;5008738;28;20493;-76
2022/09/08 13:42:00;;;;;;;4.07;1.10;;;;;;;;;;5008538;28;20087;-76
2022/09/08 13:44:44;;;;;;;3.05;1.10;;;;;;;;;;5008429;28;20649;-76
2022/09/08 13:47:31;;;;;;;4.00;1.05;;;;;;;;;;5008079;28;20564;-76
2022/09/08 13:50:05;;;;;;;2.83;1.00;;;;;;;;;;5008848;28;20084;-76
2022/09/08 13:52:52;;;;;;;5.50;1.27;;;;;;;;;;5008500;28;20531;-77
2022/09/08 13:55:26;;;;;;;3.83;1.00;;;;;;;;;;5008396;28;20034;-76
2022/09/08 13:57:58;;;;;;;5.20;1.10;;;;;;;;;;5008269;28;20057;-76
2022/09/08 14:00:23;;;;;;;3.92;1.05;;;;;;;;;;5008544;28;20524;-76
2022/09/08 14:02:54;;;;;;;4.47;0.80;;;;;;;;;;5008123;28;20110;-76
2022/09/08 14:05:29;;;;;;;6.55;0.80;;;;;;;;;;5008244;28;20026;-76
2022/09/08 14:08:01;;;;;;;5.93;0.75;;;;;;;;;;5007813;28;20041;-76
2022/09/08 14:10:54;;;;;;;5.22;0.93;;;;;;;;;;5008434;28;20397;-76
2022/09/08 14:13:26;;;;;;;5.72;1.10;;;;;;;;;;5007944;28;20064;-76
2022/09/08 14:16:00;;;;;;;4.20;0.90;;;;;;;;;;5008363;28;20030;-75
2022/09/08 14:19:03;;;;;;;5.70;1.10;;;;;;;;;;5007868;28;20139;-77
2022/09/08 14:21:55;;;;;;;4.60;1.20;;;;;;;;;;5007922;28;20029;-77
2022/09/08 14:24:38;;;;;;;5.05;1.30;;;;;;;;;;5007958;28;20030;-76
2022/09/08 14:27:08;;;;;;;3.50;1.00;;;;;;;;;;5007618;28;20121;-77
2022/09/08 14:29:33;;;;;;;3.97;0.93;;;;;;;;;;5007892;28;20030;-77
2022/09/08 14:32:18;;;;;;;4.43;1.00;;;;;;;;;;5008054;28;20577;-76
2022/09/08 14:35:28;;;;;;;4.40;1.13;;;;;;;;;;5007865;28;20485;-76
2022/09/08 14:37:57;;;;;;;;;;;;;;;;;;5007955;28;20401;-77
2022/09/08 14:40:24;;;;;;;3.55;1.00;;;;;;;;;;4990314;28;19917;-76
2022/09/08 14:43:13;;;;;;;4.07;1.20;;;;;;;;;;5007414;28;20046;-77
2022/09/08 14:45:51;;;;;;;3.80;0.95;;;;;;;;;;5007430;28;20102;-76
2022/09/08 14:48:18;;;;;;;6.47;1.10;;;;;;;;;;5007622;28;20037;-76
2022/09/08 14:51:02;;;;;;;2.75;0.90;;;;;;;;;;5007953;28;20030;-76
2022/09/08 14:53:55;;;;;;;5.28;1.00;;;;;;;;;;5007414;28;20030;-76
2022/09/08 14:56:30;;;;;;;7.22;1.50;;;;;;;;;;5007305;28;20163;-76
2022/09/08 14:59:29;;;;;;;5.10;1.13;;;;;;;;;;5007225;28;20121;-76
2022/09/08 15:02:22;;;;;;;4.13;1.20;;;;;;;;;;5006988;28;20070;-76
2022/09/08 15:04:49;;;;;;;4.78;1.10;;;;;;;;;;5007560;28;20512;-77
2022/09/08 15:07:21;;;;;;;3.67;1.10;;;;;;;;;;5007207;28;20079;-76
2022/09/08 15:10:06;;;;;;;4.75;1.20;;;;;;;;;;5007417;28;20026;-77
2022/09/08 15:12:56;;;;;;;3.00;1.05;;;;;;;;;;4989505;28;20462;-77
2022/09/08 15:15:42;;;;;;;6.47;1.40;;;;;;;;;;4989834;28;20030;-76
2022/09/08 15:18:16;;;;;;;65.72;5.80;;;;;;;;;;4989515;28;20556;-77
2022/09/08 15:20:52;;;;;;;40.50;4.18;;;;;;;;;;5006778;28;20116;-77
2022/09/08 15:23:33;;;;;;;18.77;1.90;;;;;;;;;;5007005;28;20572;-77
2022/09/08 15:26:06;;;;;;;7.28;1.40;;;;;;;;;;4989843;28;20544;-77
2022/09/08 15:28:38;;;;;;;8.85;1.13;;;;;;;;;;5006835;28;20425;-77
2022/09/08 15:31:24;;;;;;;6.65;1.08;;;;;;;;;;5007095;28;20022;-77
2022/09/08 15:33:58;;;;;;;6.28;1.30;;;;;;;;;;5006861;28;20064;-77
2022/09/08 15:36:43;;;;;;;6.22;1.10;;;;;;;;;;5006976;28;20030;-77
2022/09/08 15:39:16;;;;;;;4.30;0.85;;;;;;;;;;5007092;28;20038;-77
2022/09/08 15:41:48;;;;;;;4.22;1.05;;;;;;;;;;5006904;28;20030;-76